sensor_id;sensor_type;location;lat;lon;timestamp;temperature;humidity
10654;DHT22;5375;51.250;6.776;2023-05-29T00:00:13;22.00;50.00
10654;DHT22;5375;51.250;6.776;2023-05-29T00:02:39;22.00;50.00
10654;DHT22;5375;51.250;6.776;2023-05-29T00:05:12;22.00;49.90
10654;DHT22;5375;51.250;6.776;2023-05-29T00:07:39;22.00;49.90
10654;DHT22;5375;51.250;6.776;2023-05-29T00:10:05;22.00;49.90
10654;DHT22;5375;51.250;6.776;2023-05-29T00:14:58;22.00;49.90
10654;DHT22;5375;51.250;6.776;2023-05-29T00:19:50;22.00;49.80
10654;DHT22;5375;51.250;6.776;2023-05-29T00:24:41;22.00;49.90
10654;DHT22;5375;51.250;6.776;2023-05-29T00:29:34;22.00;49.80
10654;DHT22;5375;51.250;6.776;2023-05-29T00:34:27;22.00;49.80
10654;DHT22;5375;51.250;6.776;2023-05-29T00:39:21;22.00;49.80
10654;DHT22;5375;51.250;6.776;2023-05-29T00:41:47;22.00;49.80
10654;DHT22;5375;51.250;6.776;2023-05-29T00:44:17;22.00;49.80
10654;DHT22;5375;51.250;6.776;2023-05-29T00:49:09;22.00;49.80
10654;DHT22;5375;51.250;6.776;2023-05-29T00:51:36;22.00;49.70
10654;DHT22;5375;51.250;6.776;2023-05-29T00:54:07;22.00;49.70
10654;DHT22;5375;51.250;6.776;2023-05-29T00:56:34;22.00;49.70
10654;DHT22;5375;51.250;6.776;2023-05-29T00:59:01;22.00;49.80
10654;DHT22;5375;51.250;6.776;2023-05-29T01:01:27;22.00;49.80
10654;DHT22;5375;51.250;6.776;2023-05-29T01:03:55;21.90;49.60
10654;DHT22;5375;51.250;6.776;2023-05-29T01:06:23;22.00;49.70
10654;DHT22;5375;51.250;6.776;2023-05-29T01:08:49;21.90;49.60
10654;DHT22;5375;51.250;6.776;2023-05-29T01:14:06;21.90;49.60
10654;DHT22;5375;51.250;6.776;2023-05-29T01:19:25;21.90;49.70
10654;DHT22;5375;51.250;6.776;2023-05-29T01:21:58;21.90;49.60
10654;DHT22;5375;51.250;6.776;2023-05-29T01:24:48;21.90;49.60
10654;DHT22;5375;51.250;6.776;2023-05-29T01:27:17;21.90;49.70
10654;DHT22;5375;51.250;6.776;2023-05-29T01:29:46;21.90;49.70
10654;DHT22;5375;51.250;6.776;2023-05-29T01:32:12;21.90;49.60
10654;DHT22;5375;51.250;6.776;2023-05-29T01:37:04;21.90;49.60
10654;DHT22;5375;51.250;6.776;2023-05-29T01:39:31;21.90;49.60
10654;DHT22;5375;51.250;6.776;2023-05-29T01:41:58;21.90;49.60
10654;DHT22;5375;51.250;6.776;2023-05-29T01:44:25;21.90;49.60
10654;DHT22;5375;51.250;6.776;2023-05-29T01:46:51;21.90;49.60
10654;DHT22;5375;51.250;6.776;2023-05-29T01:49:18;21.90;49.60
10654;DHT22;5375;51.250;6.776;2023-05-29T01:51:44;21.90;49.60
10654;DHT22;5375;51.250;6.776;2023-05-29T01:56:38;21.90;49.60
10654;DHT22;5375;51.250;6.776;2023-05-29T01:59:04;21.90;49.60
10654;DHT22;5375;51.250;6.776;2023-05-29T02:01:31;21.90;49.60
10654;DHT22;5375;51.250;6.776;2023-05-29T02:08:49;21.90;49.60
10654;DHT22;5375;51.250;6.776;2023-05-29T02:13:41;21.90;49.60
10654;DHT22;5375;51.250;6.776;2023-05-29T02:21:00;21.80;49.50
10654;DHT22;5375;51.250;6.776;2023-05-29T02:23:26;21.90;49.60
10654;DHT22;5375;51.250;6.776;2023-05-29T02:42:53;21.80;49.50
10654;DHT22;5375;51.250;6.776;2023-05-29T02:52:39;21.80;49.50
10654;DHT22;5375;51.250;6.776;2023-05-29T02:55:06;21.80;49.60
10654;DHT22;5375;51.250;6.776;2023-05-29T02:59:58;21.80;49.60
10654;DHT22;5375;51.250;6.776;2023-05-29T03:02:24;21.80;49.50
10654;DHT22;5375;51.250;6.776;2023-05-29T03:04:50;21.80;49.50
10654;DHT22;5375;51.250;6.776;2023-05-29T03:09:42;21.80;49.60
10654;DHT22;5375;51.250;6.776;2023-05-29T03:12:08;21.80;49.50
10654;DHT22;5375;51.250;6.776;2023-05-29T03:31:38;21.80;49.60
10654;DHT22;5375;51.250;6.776;2023-05-29T03:36:29;21.80;49.70
10654;DHT22;5375;51.250;6.776;2023-05-29T03:43:47;21.80;49.70
10654;DHT22;5375;51.250;6.776;2023-05-29T03:53:31;21.80;49.70
10654;DHT22;5375;51.250;6.776;2023-05-29T04:10:34;21.70;49.60
10654;DHT22;5375;51.250;6.776;2023-05-29T04:15:29;21.70;49.60
10654;DHT22;5375;51.250;6.776;2023-05-29T04:17:55;21.70;49.60
10654;DHT22;5375;51.250;6.776;2023-05-29T04:22:47;21.70;49.60
10654;DHT22;5375;51.250;6.776;2023-05-29T04:27:39;21.70;49.60
10654;DHT22;5375;51.250;6.776;2023-05-29T04:30:06;21.70;49.60
10654;DHT22;5375;51.250;6.776;2023-05-29T04:32:32;21.70;49.60
10654;DHT22;5375;51.250;6.776;2023-05-29T04:34:59;21.70;49.60
10654;DHT22;5375;51.250;6.776;2023-05-29T04:37:28;21.70;49.60
10654;DHT22;5375;51.250;6.776;2023-05-29T04:39:58;21.70;49.60
10654;DHT22;5375;51.250;6.776;2023-05-29T04:42:23;21.70;49.60
10654;DHT22;5375;51.250;6.776;2023-05-29T04:44:51;21.70;49.60
10654;DHT22;5375;51.250;6.776;2023-05-29T04:47:18;21.70;49.60
10654;DHT22;5375;51.250;6.776;2023-05-29T04:49:44;21.70;49.60
10654;DHT22;5375;51.250;6.776;2023-05-29T04:52:14;21.70;49.50
10654;DHT22;5375;51.250;6.776;2023-05-29T04:54:40;21.70;49.50
10654;DHT22;5375;51.250;6.776;2023-05-29T04:59:32;21.70;49.50
10654;DHT22;5375;51.250;6.776;2023-05-29T05:09:16;21.70;49.50
10654;DHT22;5375;51.250;6.776;2023-05-29T05:16:34;21.70;49.40
10654;DHT22;5375;51.250;6.776;2023-05-29T05:21:26;21.70;49.40
10654;DHT22;5375;51.250;6.776;2023-05-29T05:33:36;21.70;49.40
10654;DHT22;5375;51.250;6.776;2023-05-29T05:43:21;21.70;49.30
10654;DHT22;5375;51.250;6.776;2023-05-29T05:45:47;21.70;49.20
10654;DHT22;5375;51.250;6.776;2023-05-29T06:00:23;21.70;49.20
10654;DHT22;5375;51.250;6.776;2023-05-29T06:05:15;21.70;49.10
10654;DHT22;5375;51.250;6.776;2023-05-29T06:10:07;21.70;49.10
10654;DHT22;5375;51.250;6.776;2023-05-29T06:12:33;21.70;49.00
10654;DHT22;5375;51.250;6.776;2023-05-29T06:15:00;21.70;49.10
10654;DHT22;5375;51.250;6.776;2023-05-29T06:19:52;21.70;49.00
10654;DHT22;5375;51.250;6.776;2023-05-29T06:22:18;21.70;49.00
10654;DHT22;5375;51.250;6.776;2023-05-29T06:29:36;21.60;48.90
10654;DHT22;5375;51.250;6.776;2023-05-29T06:39:21;21.70;48.90
10654;DHT22;5375;51.250;6.776;2023-05-29T06:41:47;21.70;48.90
10654;DHT22;5375;51.250;6.776;2023-05-29T06:46:38;21.70;48.90
10654;DHT22;5375;51.250;6.776;2023-05-29T06:51:30;21.70;48.90
10654;DHT22;5375;51.250;6.776;2023-05-29T06:53:57;21.70;48.90
10654;DHT22;5375;51.250;6.776;2023-05-29T06:58:49;21.70;48.90
10654;DHT22;5375;51.250;6.776;2023-05-29T07:03:42;21.70;48.80
10654;DHT22;5375;51.250;6.776;2023-05-29T07:11:02;21.70;48.80
10654;DHT22;5375;51.250;6.776;2023-05-29T07:13:27;21.70;48.80
10654;DHT22;5375;51.250;6.776;2023-05-29T07:38:26;21.70;48.80
10654;DHT22;5375;51.250;6.776;2023-05-29T07:43:17;21.70;48.70
10654;DHT22;5375;51.250;6.776;2023-05-29T07:45:43;21.70;48.60
10654;DHT22;5375;51.250;6.776;2023-05-29T07:48:09;21.70;48.50
10654;DHT22;5375;51.250;6.776;2023-05-29T08:02:46;21.70;48.20
10654;DHT22;5375;51.250;6.776;2023-05-29T08:10:05;21.60;48.00
10654;DHT22;5375;51.250;6.776;2023-05-29T08:12:31;21.60;48.00
10654;DHT22;5375;51.250;6.776;2023-05-29T08:29:35;21.60;48.00
10654;DHT22;5375;51.250;6.776;2023-05-29T08:39:20;21.60;47.90
10654;DHT22;5375;51.250;6.776;2023-05-29T08:42:06;21.70;47.90
10654;DHT22;5375;51.250;6.776;2023-05-29T08:44:33;21.60;47.90
10654;DHT22;5375;51.250;6.776;2023-05-29T08:47:02;21.60;47.90
10654;DHT22;5375;51.250;6.776;2023-05-29T08:49:41;21.60;48.00
10654;DHT22;5375;51.250;6.776;2023-05-29T08:52:19;21.70;48.00
10654;DHT22;5375;51.250;6.776;2023-05-29T08:54:46;21.70;48.00
10654;DHT22;5375;51.250;6.776;2023-05-29T08:57:12;21.60;47.90
10654;DHT22;5375;51.250;6.776;2023-05-29T08:59:41;21.70;48.00
10654;DHT22;5375;51.250;6.776;2023-05-29T09:02:07;21.70;48.00
10654;DHT22;5375;51.250;6.776;2023-05-29T09:09:29;21.70;48.00
10654;DHT22;5375;51.250;6.776;2023-05-29T09:19:26;21.70;47.90
10654;DHT22;5375;51.250;6.776;2023-05-29T09:21:52;21.60;47.80
10654;DHT22;5375;51.250;6.776;2023-05-29T09:24:26;21.70;47.80
10654;DHT22;5375;51.250;6.776;2023-05-29T09:26:52;21.70;47.80
10654;DHT22;5375;51.250;6.776;2023-05-29T09:29:19;21.60;47.60
10654;DHT22;5375;51.250;6.776;2023-05-29T09:31:48;21.60;47.60
10654;DHT22;5375;51.250;6.776;2023-05-29T09:34:14;21.60;47.50
10654;DHT22;5375;51.250;6.776;2023-05-29T09:36:40;21.60;47.60
10654;DHT22;5375;51.250;6.776;2023-05-29T09:41:41;21.70;47.90
10654;DHT22;5375;51.250;6.776;2023-05-29T09:44:07;21.60;47.80
10654;DHT22;5375;51.250;6.776;2023-05-29T09:46:36;21.60;47.70
10654;DHT22;5375;51.250;6.776;2023-05-29T09:49:02;21.70;47.80
10654;DHT22;5375;51.250;6.776;2023-05-29T09:51:31;21.70;47.70
10654;DHT22;5375;51.250;6.776;2023-05-29T09:56:27;21.60;47.50
10654;DHT22;5375;51.250;6.776;2023-05-29T09:58:56;21.70;47.50
10654;DHT22;5375;51.250;6.776;2023-05-29T10:01:23;21.60;47.50
10654;DHT22;5375;51.250;6.776;2023-05-29T10:03:49;21.70;47.50
10654;DHT22;5375;51.250;6.776;2023-05-29T10:06:17;21.70;47.50
10654;DHT22;5375;51.250;6.776;2023-05-29T10:08:46;18.20;45.80
10654;DHT22;5375;51.250;6.776;2023-05-29T10:11:16;21.70;47.50
10654;DHT22;5375;51.250;6.776;2023-05-29T10:13:45;21.70;47.50
10654;DHT22;5375;51.250;6.776;2023-05-29T10:16:15;21.70;47.40
10654;DHT22;5375;51.250;6.776;2023-05-29T10:18:44;21.70;47.40
10654;DHT22;5375;51.250;6.776;2023-05-29T10:21:15;21.80;47.50
10654;DHT22;5375;51.250;6.776;2023-05-29T10:23:47;21.70;47.30
10654;DHT22;5375;51.250;6.776;2023-05-29T10:26:26;21.80;47.30
10654;DHT22;5375;51.250;6.776;2023-05-29T10:29:05;21.70;47.30
10654;DHT22;5375;51.250;6.776;2023-05-29T10:37:08;21.80;47.20
10654;DHT22;5375;51.250;6.776;2023-05-29T10:39:35;21.80;47.30
10654;DHT22;5375;51.250;6.776;2023-05-29T10:49:25;21.80;47.20
10654;DHT22;5375;51.250;6.776;2023-05-29T10:51:52;21.80;47.10
10654;DHT22;5375;51.250;6.776;2023-05-29T10:54:22;21.80;47.10
10654;DHT22;5375;51.250;6.776;2023-05-29T10:56:56;21.90;47.10
10654;DHT22;5375;51.250;6.776;2023-05-29T10:59:21;21.90;47.10
10654;DHT22;5375;51.250;6.776;2023-05-29T11:01:51;21.80;47.00
10654;DHT22;5375;51.250;6.776;2023-05-29T11:06:47;21.90;47.00
10654;DHT22;5375;51.250;6.776;2023-05-29T11:09:45;21.90;47.10
10654;DHT22;5375;51.250;6.776;2023-05-29T11:12:25;21.80;47.20
10654;DHT22;5375;51.250;6.776;2023-05-29T11:15:10;21.90;47.30
10654;DHT22;5375;51.250;6.776;2023-05-29T11:20:10;21.90;47.20
10654;DHT22;5375;51.250;6.776;2023-05-29T11:25:19;21.90;47.20
10654;DHT22;5375;51.250;6.776;2023-05-29T11:27:45;21.90;47.20
10654;DHT22;5375;51.250;6.776;2023-05-29T11:30:11;21.90;47.20
10654;DHT22;5375;51.250;6.776;2023-05-29T11:32:39;21.90;47.10
10654;DHT22;5375;51.250;6.776;2023-05-29T11:35:10;21.90;47.20
10654;DHT22;5375;51.250;6.776;2023-05-29T11:37:38;21.90;47.20
10654;DHT22;5375;51.250;6.776;2023-05-29T11:40:07;21.90;47.20
10654;DHT22;5375;51.250;6.776;2023-05-29T11:45:18;21.90;47.10
10654;DHT22;5375;51.250;6.776;2023-05-29T11:48:02;18.90;45.70
10654;DHT22;5375;51.250;6.776;2023-05-29T11:50:29;21.90;47.40
10654;DHT22;5375;51.250;6.776;2023-05-29T11:52:57;21.90;47.60
10654;DHT22;5375;51.250;6.776;2023-05-29T11:55:23;21.90;47.60
10654;DHT22;5375;51.250;6.776;2023-05-29T11:57:50;22.00;47.60
10654;DHT22;5375;51.250;6.776;2023-05-29T12:00:18;22.00;47.70
10654;DHT22;5375;51.250;6.776;2023-05-29T12:05:15;21.90;47.70
10654;DHT22;5375;51.250;6.776;2023-05-29T12:07:54;21.90;47.80
10654;DHT22;5375;51.250;6.776;2023-05-29T12:10:22;22.00;47.80
10654;DHT22;5375;51.250;6.776;2023-05-29T12:12:58;22.00;47.90
10654;DHT22;5375;51.250;6.776;2023-05-29T12:15:28;22.00;47.90
10654;DHT22;5375;51.250;6.776;2023-05-29T12:17:55;22.00;48.00
10654;DHT22;5375;51.250;6.776;2023-05-29T12:20:25;22.00;48.00
10654;DHT22;5375;51.250;6.776;2023-05-29T12:22:59;22.00;48.10
10654;DHT22;5375;51.250;6.776;2023-05-29T12:25:26;22.00;48.10
10654;DHT22;5375;51.250;6.776;2023-05-29T12:27:55;22.00;48.20
10654;DHT22;5375;51.250;6.776;2023-05-29T12:30:22;22.00;48.20
10654;DHT22;5375;51.250;6.776;2023-05-29T12:32:52;22.00;48.30
10654;DHT22;5375;51.250;6.776;2023-05-29T12:35:18;22.00;48.30
10654;DHT22;5375;51.250;6.776;2023-05-29T12:37:49;22.00;48.30
10654;DHT22;5375;51.250;6.776;2023-05-29T12:40:16;22.00;48.30
10654;DHT22;5375;51.250;6.776;2023-05-29T12:45:09;22.00;48.30
10654;DHT22;5375;51.250;6.776;2023-05-29T12:47:44;22.00;48.30
10654;DHT22;5375;51.250;6.776;2023-05-29T12:50:37;22.00;48.20
10654;DHT22;5375;51.250;6.776;2023-05-29T12:55:40;22.00;48.30
10654;DHT22;5375;51.250;6.776;2023-05-29T12:58:20;22.00;48.10
10654;DHT22;5375;51.250;6.776;2023-05-29T13:00:46;22.00;48.10
10654;DHT22;5375;51.250;6.776;2023-05-29T13:05:43;22.00;48.10
10654;DHT22;5375;51.250;6.776;2023-05-29T13:10:35;22.00;48.10
10654;DHT22;5375;51.250;6.776;2023-05-29T13:13:01;22.00;48.20
10654;DHT22;5375;51.250;6.776;2023-05-29T13:17:53;22.00;48.20
10654;DHT22;5375;51.250;6.776;2023-05-29T13:22:48;22.00;48.20
10654;DHT22;5375;51.250;6.776;2023-05-29T13:25:15;22.00;48.20
10654;DHT22;5375;51.250;6.776;2023-05-29T13:27:44;22.00;48.20
10654;DHT22;5375;51.250;6.776;2023-05-29T13:30:11;22.00;48.20
10654;DHT22;5375;51.250;6.776;2023-05-29T13:32:37;22.00;48.20
10654;DHT22;5375;51.250;6.776;2023-05-29T13:37:28;22.00;48.20
10654;DHT22;5375;51.250;6.776;2023-05-29T13:42:21;22.00;48.30
10654;DHT22;5375;51.250;6.776;2023-05-29T13:44:48;22.00;48.20
10654;DHT22;5375;51.250;6.776;2023-05-29T13:54:32;22.00;48.30
10654;DHT22;5375;51.250;6.776;2023-05-29T13:57:05;22.00;48.30
10654;DHT22;5375;51.250;6.776;2023-05-29T13:59:32;22.00;48.30
10654;DHT22;5375;51.250;6.776;2023-05-29T14:01:58;22.00;48.20
10654;DHT22;5375;51.250;6.776;2023-05-29T14:04:24;22.00;48.30
10654;DHT22;5375;51.250;6.776;2023-05-29T14:06:52;22.00;48.20
10654;DHT22;5375;51.250;6.776;2023-05-29T14:11:52;22.00;48.30
10654;DHT22;5375;51.250;6.776;2023-05-29T14:14:18;22.00;48.30
10654;DHT22;5375;51.250;6.776;2023-05-29T14:16:44;22.00;48.30
10654;DHT22;5375;51.250;6.776;2023-05-29T14:24:02;22.00;48.30
10654;DHT22;5375;51.250;6.776;2023-05-29T14:31:21;22.00;48.30
10654;DHT22;5375;51.250;6.776;2023-05-29T14:33:47;22.00;48.30
10654;DHT22;5375;51.250;6.776;2023-05-29T14:36:12;22.00;48.30
10654;DHT22;5375;51.250;6.776;2023-05-29T14:55:41;22.00;48.30
10654;DHT22;5375;51.250;6.776;2023-05-29T15:00:33;22.00;48.30
10654;DHT22;5375;51.250;6.776;2023-05-29T15:05:26;22.00;48.30
10654;DHT22;5375;51.250;6.776;2023-05-29T15:10:20;22.00;48.40
10654;DHT22;5375;51.250;6.776;2023-05-29T15:12:46;22.00;48.40
10654;DHT22;5375;51.250;6.776;2023-05-29T15:15:12;22.00;48.40
10654;DHT22;5375;51.250;6.776;2023-05-29T15:20:05;22.00;48.40
10654;DHT22;5375;51.250;6.776;2023-05-29T15:22:31;22.00;48.40
10654;DHT22;5375;51.250;6.776;2023-05-29T15:27:23;22.00;48.40
10654;DHT22;5375;51.250;6.776;2023-05-29T15:29:52;22.00;48.40
10654;DHT22;5375;51.250;6.776;2023-05-29T15:37:10;22.00;48.40
10654;DHT22;5375;51.250;6.776;2023-05-29T15:44:29;22.00;48.40
10654;DHT22;5375;51.250;6.776;2023-05-29T16:02:05;22.10;48.30
10654;DHT22;5375;51.250;6.776;2023-05-29T16:06:57;22.10;48.40
10654;DHT22;5375;51.250;6.776;2023-05-29T16:09:23;22.10;48.40
10654;DHT22;5375;51.250;6.776;2023-05-29T16:11:49;22.10;48.40
10654;DHT22;5375;51.250;6.776;2023-05-29T16:14:14;22.20;48.50
10654;DHT22;5375;51.250;6.776;2023-05-29T16:16:40;22.20;48.50
10654;DHT22;5375;51.250;6.776;2023-05-29T16:21:32;22.20;48.50
10654;DHT22;5375;51.250;6.776;2023-05-29T16:23:59;22.20;48.50
10654;DHT22;5375;51.250;6.776;2023-05-29T16:26:25;22.20;48.50
10654;DHT22;5375;51.250;6.776;2023-05-29T16:28:57;22.30;48.60
10654;DHT22;5375;51.250;6.776;2023-05-29T16:33:51;22.30;48.60
10654;DHT22;5375;51.250;6.776;2023-05-29T16:36:17;22.30;48.50
10654;DHT22;5375;51.250;6.776;2023-05-29T16:46:01;22.30;48.50
10654;DHT22;5375;51.250;6.776;2023-05-29T16:48:29;22.30;48.50
10654;DHT22;5375;51.250;6.776;2023-05-29T17:00:40;22.30;48.50
10654;DHT22;5375;51.250;6.776;2023-05-29T17:05:32;22.30;48.60
10654;DHT22;5375;51.250;6.776;2023-05-29T17:10:33;22.30;48.60
10654;DHT22;5375;51.250;6.776;2023-05-29T17:12:59;22.30;48.60
10654;DHT22;5375;51.250;6.776;2023-05-29T17:20:18;22.30;48.60
10654;DHT22;5375;51.250;6.776;2023-05-29T17:30:02;22.30;48.60
10654;DHT22;5375;51.250;6.776;2023-05-29T17:32:28;22.30;48.60
10654;DHT22;5375;51.250;6.776;2023-05-29T17:37:20;22.40;48.90
10654;DHT22;5375;51.250;6.776;2023-05-29T17:43:08;22.40;48.90
10654;DHT22;5375;51.250;6.776;2023-05-29T17:45:34;22.40;49.30
10654;DHT22;5375;51.250;6.776;2023-05-29T17:47:59;22.40;49.40
10654;DHT22;5375;51.250;6.776;2023-05-29T17:50:25;22.40;49.30
10654;DHT22;5375;51.250;6.776;2023-05-29T17:52:51;22.40;49.30
10654;DHT22;5375;51.250;6.776;2023-05-29T17:55:16;22.40;49.40
10654;DHT22;5375;51.250;6.776;2023-05-29T17:57:42;22.40;49.40
10654;DHT22;5375;51.250;6.776;2023-05-29T18:00:08;22.40;49.40
10654;DHT22;5375;51.250;6.776;2023-05-29T18:02:35;22.40;49.40
10654;DHT22;5375;51.250;6.776;2023-05-29T18:05:01;22.30;49.40
10654;DHT22;5375;51.250;6.776;2023-05-29T18:07:27;22.30;49.40
10654;DHT22;5375;51.250;6.776;2023-05-29T18:09:52;22.30;49.40
10654;DHT22;5375;51.250;6.776;2023-05-29T18:12:18;22.30;49.40
10654;DHT22;5375;51.250;6.776;2023-05-29T18:14:44;22.30;49.40
10654;DHT22;5375;51.250;6.776;2023-05-29T18:17:09;22.30;49.40
10654;DHT22;5375;51.250;6.776;2023-05-29T18:19:35;22.30;49.40
10654;DHT22;5375;51.250;6.776;2023-05-29T18:22:02;22.30;49.40
10654;DHT22;5375;51.250;6.776;2023-05-29T18:24:28;22.30;49.50
10654;DHT22;5375;51.250;6.776;2023-05-29T18:26:53;22.30;49.50
10654;DHT22;5375;51.250;6.776;2023-05-29T18:29:19;22.30;49.50
10654;DHT22;5375;51.250;6.776;2023-05-29T18:31:45;22.30;49.50
10654;DHT22;5375;51.250;6.776;2023-05-29T18:34:10;22.30;49.50
10654;DHT22;5375;51.250;6.776;2023-05-29T18:36:36;22.30;49.40
10654;DHT22;5375;51.250;6.776;2023-05-29T18:39:01;22.30;49.40
10654;DHT22;5375;51.250;6.776;2023-05-29T18:41:27;22.30;48.90
10654;DHT22;5375;51.250;6.776;2023-05-29T18:43:53;22.30;49.50
10654;DHT22;5375;51.250;6.776;2023-05-29T18:46:18;22.20;49.40
10654;DHT22;5375;51.250;6.776;2023-05-29T18:48:46;22.30;49.50
10654;DHT22;5375;51.250;6.776;2023-05-29T18:51:11;22.30;49.50
10654;DHT22;5375;51.250;6.776;2023-05-29T18:53:37;22.30;49.40
10654;DHT22;5375;51.250;6.776;2023-05-29T18:56:06;22.30;50.10
10654;DHT22;5375;51.250;6.776;2023-05-29T18:58:32;22.30;50.10
10654;DHT22;5375;51.250;6.776;2023-05-29T19:00:58;22.30;49.50
10654;DHT22;5375;51.250;6.776;2023-05-29T19:03:25;22.30;49.50
10654;DHT22;5375;51.250;6.776;2023-05-29T19:05:51;22.30;49.60
10654;DHT22;5375;51.250;6.776;2023-05-29T19:08:16;22.30;49.60
10654;DHT22;5375;51.250;6.776;2023-05-29T19:10:43;22.30;49.60
10654;DHT22;5375;51.250;6.776;2023-05-29T19:13:09;22.30;49.60
10654;DHT22;5375;51.250;6.776;2023-05-29T19:15:35;22.40;49.70
10654;DHT22;5375;51.250;6.776;2023-05-29T19:18:01;22.30;49.70
10654;DHT22;5375;51.250;6.776;2023-05-29T19:20:28;22.40;49.70
10654;DHT22;5375;51.250;6.776;2023-05-29T19:22:54;22.40;49.70
10654;DHT22;5375;51.250;6.776;2023-05-29T19:25:20;22.30;49.60
10654;DHT22;5375;51.250;6.776;2023-05-29T19:27:45;22.40;49.60
10654;DHT22;5375;51.250;6.776;2023-05-29T19:30:11;22.30;49.50
10654;DHT22;5375;51.250;6.776;2023-05-29T19:32:37;22.30;49.50
10654;DHT22;5375;51.250;6.776;2023-05-29T19:35:03;22.30;49.40
10654;DHT22;5375;51.250;6.776;2023-05-29T19:37:30;22.30;48.60
10654;DHT22;5375;51.250;6.776;2023-05-29T19:39:56;22.30;49.10
10654;DHT22;5375;51.250;6.776;2023-05-29T19:42:23;22.30;48.90
10654;DHT22;5375;51.250;6.776;2023-05-29T19:44:52;22.30;48.70
10654;DHT22;5375;51.250;6.776;2023-05-29T19:47:18;22.20;48.60
10654;DHT22;5375;51.250;6.776;2023-05-29T19:49:44;22.20;48.60
10654;DHT22;5375;51.250;6.776;2023-05-29T19:52:10;22.20;48.60
10654;DHT22;5375;51.250;6.776;2023-05-29T19:54:36;22.20;48.70
10654;DHT22;5375;51.250;6.776;2023-05-29T19:57:03;22.20;48.80
10654;DHT22;5375;51.250;6.776;2023-05-29T19:59:29;22.30;48.90
10654;DHT22;5375;51.250;6.776;2023-05-29T20:01:55;22.30;49.00
10654;DHT22;5375;51.250;6.776;2023-05-29T20:04:22;22.30;49.00
10654;DHT22;5375;51.250;6.776;2023-05-29T20:06:48;22.30;49.10
10654;DHT22;5375;51.250;6.776;2023-05-29T20:09:13;22.30;49.10
10654;DHT22;5375;51.250;6.776;2023-05-29T20:11:39;22.30;49.00
10654;DHT22;5375;51.250;6.776;2023-05-29T20:14:06;22.20;48.90
10654;DHT22;5375;51.250;6.776;2023-05-29T20:16:32;22.20;48.90
10654;DHT22;5375;51.250;6.776;2023-05-29T20:18:58;22.20;48.90
10654;DHT22;5375;51.250;6.776;2023-05-29T20:21:24;22.20;48.80
10654;DHT22;5375;51.250;6.776;2023-05-29T20:23:50;22.20;48.30
10654;DHT22;5375;51.250;6.776;2023-05-29T20:26:16;22.20;48.90
10654;DHT22;5375;51.250;6.776;2023-05-29T20:28:42;22.20;48.80
10654;DHT22;5375;51.250;6.776;2023-05-29T20:31:07;22.20;48.90
10654;DHT22;5375;51.250;6.776;2023-05-29T20:33:33;22.20;48.90
10654;DHT22;5375;51.250;6.776;2023-05-29T20:35:59;22.10;48.90
10654;DHT22;5375;51.250;6.776;2023-05-29T20:38:25;22.20;49.00
10654;DHT22;5375;51.250;6.776;2023-05-29T20:40:51;22.20;49.00
10654;DHT22;5375;51.250;6.776;2023-05-29T20:43:19;22.20;49.00
10654;DHT22;5375;51.250;6.776;2023-05-29T20:45:51;22.20;48.90
10654;DHT22;5375;51.250;6.776;2023-05-29T20:48:21;22.20;48.90
10654;DHT22;5375;51.250;6.776;2023-05-29T20:50:47;22.20;48.90
10654;DHT22;5375;51.250;6.776;2023-05-29T20:53:13;22.20;48.90
10654;DHT22;5375;51.250;6.776;2023-05-29T20:55:39;22.10;48.80
10654;DHT22;5375;51.250;6.776;2023-05-29T20:58:05;22.30;48.90
10654;DHT22;5375;51.250;6.776;2023-05-29T21:00:31;22.20;48.80
10654;DHT22;5375;51.250;6.776;2023-05-29T21:02:59;22.10;48.70
10654;DHT22;5375;51.250;6.776;2023-05-29T21:05:25;22.10;48.10
10654;DHT22;5375;51.250;6.776;2023-05-29T21:07:51;22.10;48.70
10654;DHT22;5375;51.250;6.776;2023-05-29T21:10:18;22.10;48.60
10654;DHT22;5375;51.250;6.776;2023-05-29T21:12:43;22.10;48.60
10654;DHT22;5375;51.250;6.776;2023-05-29T21:15:09;22.10;48.60
10654;DHT22;5375;51.250;6.776;2023-05-29T21:17:35;22.10;48.60
10654;DHT22;5375;51.250;6.776;2023-05-29T21:20:00;22.10;48.60
10654;DHT22;5375;51.250;6.776;2023-05-29T21:22:29;22.20;48.60
10654;DHT22;5375;51.250;6.776;2023-05-29T21:24:57;22.10;48.50
10654;DHT22;5375;51.250;6.776;2023-05-29T21:27:22;22.10;48.50
10654;DHT22;5375;51.250;6.776;2023-05-29T21:29:48;22.10;48.50
10654;DHT22;5375;51.250;6.776;2023-05-29T21:32:14;22.10;48.50
10654;DHT22;5375;51.250;6.776;2023-05-29T21:34:41;22.10;48.50
10654;DHT22;5375;51.250;6.776;2023-05-29T21:37:07;22.10;48.50
10654;DHT22;5375;51.250;6.776;2023-05-29T21:39:32;22.10;48.50
10654;DHT22;5375;51.250;6.776;2023-05-29T21:41:58;22.10;48.50
10654;DHT22;5375;51.250;6.776;2023-05-29T21:44:24;22.10;48.40
10654;DHT22;5375;51.250;6.776;2023-05-29T21:46:51;22.10;48.50
10654;DHT22;5375;51.250;6.776;2023-05-29T21:49:17;22.10;48.40
10654;DHT22;5375;51.250;6.776;2023-05-29T21:51:43;22.00;47.90
10654;DHT22;5375;51.250;6.776;2023-05-29T21:54:09;22.10;48.40
10654;DHT22;5375;51.250;6.776;2023-05-29T21:56:35;22.10;48.40
10654;DHT22;5375;51.250;6.776;2023-05-29T21:59:03;22.00;48.30
10654;DHT22;5375;51.250;6.776;2023-05-29T22:01:29;22.10;48.40
10654;DHT22;5375;51.250;6.776;2023-05-29T22:03:54;22.00;48.30
10654;DHT22;5375;51.250;6.776;2023-05-29T22:06:20;22.10;48.40
10654;DHT22;5375;51.250;6.776;2023-05-29T22:08:46;22.00;48.30
10654;DHT22;5375;51.250;6.776;2023-05-29T22:11:14;22.00;48.30
10654;DHT22;5375;51.250;6.776;2023-05-29T22:13:40;22.00;48.30
10654;DHT22;5375;51.250;6.776;2023-05-29T22:16:06;22.00;48.30
10654;DHT22;5375;51.250;6.776;2023-05-29T22:18:36;22.00;48.30
10654;DHT22;5375;51.250;6.776;2023-05-29T22:21:02;22.00;48.30
10654;DHT22;5375;51.250;6.776;2023-05-29T22:23:32;22.00;48.30
10654;DHT22;5375;51.250;6.776;2023-05-29T22:25:59;22.00;48.30
10654;DHT22;5375;51.250;6.776;2023-05-29T22:28:26;22.00;48.30
10654;DHT22;5375;51.250;6.776;2023-05-29T22:30:52;19.10;46.90
10654;DHT22;5375;51.250;6.776;2023-05-29T22:33:18;22.00;48.30
10654;DHT22;5375;51.250;6.776;2023-05-29T22:35:44;22.00;48.30
10654;DHT22;5375;51.250;6.776;2023-05-29T22:38:10;22.00;48.30
10654;DHT22;5375;51.250;6.776;2023-05-29T22:40:36;22.00;48.30
10654;DHT22;5375;51.250;6.776;2023-05-29T22:43:02;22.10;48.30
10654;DHT22;5375;51.250;6.776;2023-05-29T22:45:29;22.00;48.30
10654;DHT22;5375;51.250;6.776;2023-05-29T22:47:56;22.00;48.30
10654;DHT22;5375;51.250;6.776;2023-05-29T22:50:22;22.00;48.30
10654;DHT22;5375;51.250;6.776;2023-05-29T22:52:47;22.00;48.20
10654;DHT22;5375;51.250;6.776;2023-05-29T22:55:13;21.90;48.20
10654;DHT22;5375;51.250;6.776;2023-05-29T22:57:39;21.90;48.20
10654;DHT22;5375;51.250;6.776;2023-05-29T23:00:06;21.90;48.20
10654;DHT22;5375;51.250;6.776;2023-05-29T23:05:05;21.90;47.60
10654;DHT22;5375;51.250;6.776;2023-05-29T23:10:07;22.00;47.60
10654;DHT22;5375;51.250;6.776;2023-05-29T23:12:32;21.90;47.60
10654;DHT22;5375;51.250;6.776;2023-05-29T23:17:24;21.90;47.60
10654;DHT22;5375;51.250;6.776;2023-05-29T23:19:50;21.90;47.60
10654;DHT22;5375;51.250;6.776;2023-05-29T23:27:08;21.90;47.60